createdAt,value
2023-03-01T00:00:40.102Z,95919
2023-03-01T00:04:05.245Z,95918
2023-03-01T00:07:30.387Z,95916
2023-03-01T00:10:55.554Z,95914
2023-03-01T00:14:20.749Z,95918
2023-03-01T00:17:45.879Z,95913
2023-03-01T00:21:11.019Z,95913
2023-03-01T00:24:36.154Z,95915
2023-03-01T00:28:01.324Z,95919
2023-03-01T00:31:26.516Z,95920
2023-03-01T00:34:51.667Z,95909
2023-03-01T00:38:16.830Z,95907
2023-03-01T00:41:42.000Z,95904
2023-03-01T00:45:07.150Z,95901
2023-03-01T00:48:32.322Z,95892
2023-03-01T00:51:57.501Z,95893
2023-03-01T00:55:22.645Z,95894
2023-03-01T00:58:48.826Z,95901
2023-03-01T01:02:14.003Z,95898
2023-03-01T01:05:39.136Z,95895
2023-03-01T01:09:04.320Z,95894
2023-03-01T01:12:29.481Z,95891
2023-03-01T01:15:54.680Z,95894
2023-03-01T01:19:19.829Z,95887
2023-03-01T01:22:45.025Z,95886
2023-03-01T01:26:10.155Z,95887
2023-03-01T01:29:35.313Z,95883
2023-03-01T01:33:00.486Z,95886
2023-03-01T01:36:25.650Z,95882
2023-03-01T01:39:50.861Z,95882
2023-03-01T01:43:16.020Z,95878
2023-03-01T01:46:41.236Z,95875
2023-03-01T01:50:06.357Z,95867
2023-03-01T01:53:31.552Z,95857
2023-03-01T01:56:56.730Z,95856
2023-03-01T02:00:21.908Z,95841
2023-03-01T02:03:47.155Z,95840
2023-03-01T02:07:12.291Z,95837
2023-03-01T02:10:37.450Z,95830
2023-03-01T02:14:02.717Z,95834
2023-03-01T02:17:27.769Z,95828
2023-03-01T02:20:52.917Z,95824
2023-03-01T02:24:19.294Z,95819
2023-03-01T02:27:43.218Z,95820
2023-03-01T02:31:08.540Z,95815
2023-03-01T02:34:33.569Z,95817
2023-03-01T02:37:58.720Z,95814
2023-03-01T02:41:23.860Z,95811
2023-03-01T02:44:49.045Z,95818
2023-03-01T02:48:14.205Z,95814
2023-03-01T02:51:39.377Z,95820
2023-03-01T02:55:04.528Z,95824
2023-03-01T02:58:29.683Z,95817
2023-03-01T03:01:54.844Z,95816
2023-03-01T03:05:20.013Z,95802
2023-03-01T03:08:45.183Z,95798
2023-03-01T03:12:10.347Z,95795
2023-03-01T03:15:35.537Z,95786
2023-03-01T03:19:00.704Z,95788
2023-03-01T03:22:25.885Z,95796
2023-03-01T03:25:51.042Z,95797
2023-03-01T03:29:16.210Z,95800
2023-03-01T03:32:41.370Z,95802
2023-03-01T03:36:06.576Z,95801
2023-03-01T03:39:31.711Z,95803
2023-03-01T03:42:56.849Z,95793
2023-03-01T03:46:21.991Z,95797
2023-03-01T03:49:47.167Z,95801
2023-03-01T03:53:12.313Z,95795
2023-03-01T03:56:38.791Z,95793
2023-03-01T04:00:02.635Z,95788
2023-03-01T04:03:27.782Z,95790
2023-03-01T04:06:52.942Z,95781
2023-03-01T04:10:18.084Z,95784
2023-03-01T04:13:43.273Z,95780
2023-03-01T04:17:08.404Z,95782
2023-03-01T04:20:33.584Z,95781
2023-03-01T04:23:58.737Z,95788
2023-03-01T04:27:23.896Z,95791
2023-03-01T04:30:49.112Z,95792
2023-03-01T04:34:14.255Z,95782
2023-03-01T04:37:39.531Z,95785
2023-03-01T04:41:05.153Z,95787
2023-03-01T04:44:30.324Z,95776
2023-03-01T04:47:55.504Z,95771
2023-03-01T04:51:20.649Z,95771
2023-03-01T04:54:45.856Z,95769
2023-03-01T04:58:11.041Z,95766
2023-03-01T05:01:36.199Z,95762
2023-03-01T05:05:01.479Z,95759
2023-03-01T05:08:26.471Z,95754
2023-03-01T05:11:51.640Z,95754
2023-03-01T05:15:16.813Z,95749
2023-03-01T05:18:42.033Z,95757
2023-03-01T05:22:07.229Z,95757
2023-03-01T05:25:33.354Z,95764
2023-03-01T05:28:58.508Z,95755
2023-03-01T05:32:23.697Z,95746
2023-03-01T05:35:48.844Z,95735
2023-03-01T05:39:14.033Z,95734
2023-03-01T05:42:39.171Z,95736
2023-03-01T05:46:04.405Z,95747
2023-03-01T05:49:29.467Z,95744
2023-03-01T05:52:54.635Z,95737
2023-03-01T05:56:19.831Z,95737
2023-03-01T05:59:45.001Z,95738
2023-03-01T06:03:10.169Z,95735
2023-03-01T06:06:35.504Z,95741
2023-03-01T06:10:00.531Z,95736
2023-03-01T06:13:25.688Z,95740
2023-03-01T06:16:50.838Z,95744
2023-03-01T06:20:16.001Z,95739
2023-03-01T06:23:41.212Z,95740
2023-03-01T06:27:06.368Z,95747
2023-03-01T06:30:31.612Z,95746
2023-03-01T06:33:56.804Z,95762
2023-03-01T06:37:21.995Z,95757
2023-03-01T06:40:47.150Z,95754
2023-03-01T06:44:12.301Z,95757
2023-03-01T06:47:37.647Z,95754
2023-03-01T06:51:02.687Z,95750
2023-03-01T06:54:27.879Z,95760
2023-03-01T06:57:53.023Z,95762
2023-03-01T07:01:18.202Z,95757
2023-03-01T07:04:36.158Z,95755
2023-03-01T07:08:01.353Z,95760
2023-03-01T07:11:26.736Z,95750
2023-03-01T07:14:51.919Z,95745
2023-03-01T07:18:17.086Z,95754
2023-03-01T07:21:42.294Z,95748
2023-03-01T07:25:07.448Z,95750
2023-03-01T07:28:32.615Z,95747
2023-03-01T07:31:57.850Z,95764
2023-03-01T07:35:22.970Z,95769
2023-03-01T07:38:48.178Z,95768
2023-03-01T07:42:13.346Z,95771
2023-03-01T07:45:38.562Z,95767
2023-03-01T07:49:04.105Z,95774
2023-03-01T07:52:29.302Z,95766
2023-03-01T07:55:54.486Z,95764
2023-03-01T07:59:19.621Z,95762
2023-03-01T08:02:44.794Z,95762
2023-03-01T08:06:09.986Z,95749
2023-03-01T08:09:36.281Z,95762
2023-03-01T08:13:02.090Z,95750
2023-03-01T08:16:27.647Z,95751
2023-03-01T08:19:53.698Z,95754
2023-03-01T08:23:18.869Z,95746
2023-03-01T08:26:44.092Z,95740
2023-03-01T08:30:09.250Z,95742
2023-03-01T08:33:34.402Z,95738
2023-03-01T08:36:59.587Z,95734
2023-03-01T08:40:24.756Z,95730
2023-03-01T08:43:49.912Z,95725
2023-03-01T08:47:15.099Z,95729
2023-03-01T08:50:42.149Z,95727
2023-03-01T08:54:05.461Z,95728
2023-03-01T08:57:30.625Z,95723
2023-03-01T09:00:55.805Z,95717
2023-03-01T09:04:20.999Z,95713
2023-03-01T09:07:46.181Z,95708
2023-03-01T09:11:11.360Z,95708
2023-03-01T09:14:36.583Z,95701
2023-03-01T09:18:01.767Z,95696
2023-03-01T09:21:39.424Z,95693
2023-03-01T09:24:52.113Z,95695
2023-03-01T09:28:29.033Z,95695
2023-03-01T09:31:42.473Z,95692
2023-03-01T09:35:07.695Z,95694
2023-03-01T09:38:32.842Z,95693
2023-03-01T09:41:57.963Z,95699
2023-03-01T09:45:23.130Z,95701
2023-03-01T09:48:48.328Z,95700
2023-03-01T09:52:13.473Z,95699
2023-03-01T09:55:38.665Z,95701
2023-03-01T09:59:03.822Z,95701
2023-03-01T10:02:28.982Z,95697
2023-03-01T10:05:54.174Z,95698
2023-03-01T10:09:19.376Z,95695
2023-03-01T10:12:44.597Z,95694
2023-03-01T10:16:09.871Z,95692
2023-03-01T10:19:34.994Z,95690
2023-03-01T10:23:00.228Z,95681
2023-03-01T10:26:25.416Z,95685
2023-03-01T10:29:50.666Z,95679
2023-03-01T10:33:15.826Z,95675
2023-03-01T10:36:41.035Z,95671
2023-03-01T10:40:06.236Z,95668
2023-03-01T10:43:31.423Z,95663
2023-03-01T10:46:56.708Z,95661
2023-03-01T10:50:22.045Z,95659
2023-03-01T10:53:47.327Z,95660
2023-03-01T10:57:12.563Z,95650
2023-03-01T11:00:37.868Z,95650
2023-03-01T11:04:03.216Z,95651
2023-03-01T11:07:28.558Z,95643
2023-03-01T11:10:53.849Z,95641
2023-03-01T11:14:26.670Z,95643
2023-03-01T11:17:53.715Z,95636
2023-03-01T11:21:09.685Z,95633
2023-03-01T11:24:34.893Z,95629
2023-03-01T11:28:00.135Z,95624
2023-03-01T11:31:25.423Z,95615
2023-03-01T11:34:50.602Z,95618
2023-03-01T11:38:15.865Z,95612
2023-03-01T11:41:41.030Z,95610
2023-03-01T11:45:06.246Z,95609
2023-03-01T11:48:43.514Z,95611
2023-03-01T11:51:56.742Z,95613
2023-03-01T11:55:22.155Z,95598
2023-03-01T11:58:47.254Z,95605
2023-03-01T12:02:12.590Z,95603
2023-03-01T12:05:37.768Z,95607
2023-03-01T12:09:03.019Z,95601
2023-03-01T12:12:28.410Z,95599
2023-03-01T12:15:53.713Z,95598
2023-03-01T12:19:19.196Z,95593
2023-03-01T12:22:44.485Z,95588
2023-03-01T12:26:09.766Z,95585
2023-03-01T12:29:35.000Z,95570
2023-03-01T12:33:00.239Z,95567
2023-03-01T12:36:25.445Z,95562
2023-03-01T12:39:50.816Z,95561
2023-03-01T12:43:16.085Z,95558
2023-03-01T12:46:41.436Z,95558
2023-03-01T12:50:06.651Z,95553
2023-03-01T12:53:31.935Z,95554
2023-03-01T12:56:57.213Z,95560
2023-03-01T13:00:22.426Z,95561
2023-03-01T13:03:47.786Z,95555
2023-03-01T13:07:12.830Z,95560
2023-03-01T13:10:38.077Z,95561
2023-03-01T13:14:03.263Z,95562
2023-03-01T13:17:28.442Z,95558
2023-03-01T13:20:54.037Z,95555
2023-03-01T13:24:19.155Z,95553
2023-03-01T13:27:45.808Z,95551
2023-03-01T13:31:09.500Z,95546
2023-03-01T13:34:35.636Z,95540
2023-03-01T13:38:00.875Z,95546
2023-03-01T13:41:26.056Z,95558
2023-03-01T13:44:51.236Z,95563
2023-03-01T13:48:16.424Z,95560
2023-03-01T13:51:41.578Z,95557
2023-03-01T13:55:06.799Z,95558
2023-03-01T13:58:32.770Z,95554
2023-03-01T14:01:58.402Z,95546
2023-03-01T14:05:23.561Z,95551
2023-03-01T14:08:49.468Z,95542
2023-03-01T14:12:14.925Z,95549
2023-03-01T14:15:40.266Z,95542
2023-03-01T14:19:05.560Z,95540
2023-03-01T14:22:30.992Z,95539
2023-03-01T14:25:56.360Z,95541
2023-03-01T14:29:21.709Z,95533
2023-03-01T15:07:11.992Z,95512
2023-03-01T15:10:37.190Z,95511
2023-03-01T15:14:02.420Z,95512
2023-03-01T15:17:27.640Z,95508
2023-03-01T15:20:52.844Z,95509
2023-03-01T15:24:18.439Z,95509
2023-03-01T15:27:43.634Z,95508
2023-03-01T15:31:08.937Z,95506
2023-03-01T15:34:34.109Z,95500
2023-03-01T15:37:59.372Z,95499
2023-03-01T15:41:24.650Z,95497
2023-03-01T15:44:49.845Z,95498
2023-03-01T15:48:15.088Z,95508
2023-03-01T15:51:40.353Z,95506
2023-03-01T15:55:05.622Z,95509
2023-03-01T15:58:30.892Z,95512
2023-03-01T16:01:56.120Z,95508
2023-03-01T16:05:21.367Z,95499
2023-03-01T16:08:46.605Z,95497
2023-03-01T16:12:11.858Z,95491
2023-03-01T16:15:37.149Z,95489
2023-03-01T16:19:02.478Z,95485
2023-03-01T16:22:27.759Z,95489
2023-03-01T16:25:52.976Z,95499
2023-03-01T16:29:18.216Z,95505
2023-03-01T16:32:43.512Z,95502
2023-03-01T16:36:08.769Z,95505
2023-03-01T16:39:33.970Z,95500
2023-03-01T16:42:59.229Z,95502
2023-03-01T16:46:24.443Z,95495
2023-03-01T16:49:49.695Z,95506
2023-03-01T16:53:14.911Z,95510
2023-03-01T16:56:40.131Z,95519
2023-03-01T17:00:05.342Z,95517
2023-03-01T17:03:30.681Z,95521
2023-03-01T17:06:55.896Z,95524
2023-03-01T17:10:21.070Z,95516
2023-03-01T17:13:46.350Z,95521
2023-03-01T17:17:11.553Z,95528
2023-03-01T17:20:36.816Z,95529
2023-03-01T17:24:02.077Z,95534
2023-03-01T17:27:27.300Z,95537
2023-03-01T17:30:52.520Z,95545
2023-03-01T17:34:17.724Z,95555
2023-03-01T17:37:42.902Z,95556
2023-03-01T17:41:08.198Z,95551
2023-03-01T17:44:33.321Z,95549
2023-03-01T17:47:58.507Z,95544
2023-03-01T17:51:23.677Z,95547
2023-03-01T17:54:48.854Z,95552
2023-03-01T17:58:14.065Z,95543
2023-03-01T18:01:39.341Z,95529
2023-03-01T18:05:04.471Z,95520
2023-03-01T18:08:29.629Z,95529
2023-03-01T18:11:54.816Z,95535
2023-03-01T18:15:20.284Z,95536
2023-03-01T18:18:45.195Z,95536
2023-03-01T18:22:10.321Z,95536
2023-03-01T18:25:35.495Z,95540
2023-03-01T18:29:00.684Z,95542
2023-03-01T18:32:25.957Z,95541
2023-03-01T18:35:51.046Z,95537
2023-03-01T18:39:16.243Z,95529
2023-03-01T18:42:41.461Z,95523
2023-03-01T18:46:06.730Z,95523
2023-03-01T18:49:31.954Z,95519
2023-03-01T18:52:57.136Z,95516
2023-03-01T18:56:22.314Z,95518
2023-03-01T18:59:47.505Z,95518
2023-03-01T19:03:12.680Z,95513
2023-03-01T19:06:37.866Z,95512
2023-03-01T19:10:03.035Z,95509
2023-03-01T19:13:28.233Z,95506
2023-03-01T19:16:53.410Z,95498
2023-03-01T19:20:18.572Z,95499
2023-03-01T19:23:43.775Z,95499
2023-03-01T19:27:08.940Z,95499
2023-03-01T19:30:34.123Z,95504
2023-03-01T19:34:11.309Z,95501
2023-03-01T19:37:24.436Z,95502
2023-03-01T19:40:49.937Z,95501
2023-03-01T19:44:15.056Z,95507
2023-03-01T19:47:40.231Z,95518
2023-03-01T19:51:05.422Z,95515
2023-03-01T19:54:30.586Z,95513
2023-03-01T19:57:55.784Z,95515
2023-03-01T20:01:21.004Z,95509
2023-03-01T20:04:46.119Z,95509
2023-03-01T20:08:11.284Z,95515
2023-03-01T20:11:36.456Z,95515
2023-03-01T20:15:01.769Z,95511
2023-03-01T20:18:26.824Z,95512
2023-03-01T20:21:51.987Z,95513
2023-03-01T20:25:17.139Z,95506
2023-03-01T20:28:43.024Z,95504
2023-03-01T20:32:07.670Z,95511
2023-03-01T20:35:32.690Z,95509
2023-03-01T20:38:57.774Z,95508
2023-03-01T20:42:22.960Z,95509
2023-03-01T20:45:48.128Z,95511
2023-03-01T20:49:13.456Z,95508
2023-03-01T20:52:47.018Z,95506
2023-03-01T20:56:03.616Z,95504
2023-03-01T20:59:28.797Z,95507
2023-03-01T21:02:53.970Z,95506
2023-03-01T21:06:19.184Z,95508
2023-03-01T21:09:44.326Z,95509
2023-03-01T21:13:09.485Z,95507
2023-03-01T21:16:34.936Z,95510
2023-03-01T21:19:59.866Z,95506
2023-03-01T21:23:25.096Z,95502
2023-03-01T21:26:50.221Z,95504
2023-03-01T21:30:15.405Z,95506
2023-03-01T21:33:40.598Z,95500
2023-03-01T21:37:05.772Z,95496
2023-03-01T21:40:30.970Z,95491
2023-03-01T21:43:56.135Z,95483
2023-03-01T21:47:21.318Z,95480
2023-03-01T21:50:46.486Z,95474
2023-03-01T21:54:11.660Z,95476
2023-03-01T21:57:36.858Z,95471
2023-03-01T22:01:02.036Z,95474
2023-03-01T22:04:27.187Z,95473
2023-03-01T22:07:52.357Z,95470
2023-03-01T22:11:17.519Z,95471
2023-03-01T22:14:42.707Z,95473
2023-03-01T22:18:07.857Z,95473
2023-03-01T22:21:33.034Z,95475
2023-03-01T22:24:58.227Z,95477
2023-03-01T22:28:23.379Z,95476
2023-03-01T22:31:48.588Z,95468
2023-03-01T22:35:13.701Z,95467
2023-03-01T22:38:38.874Z,95462
2023-03-01T22:42:04.043Z,95461
2023-03-01T22:45:29.230Z,95461
2023-03-01T22:48:54.479Z,95456
2023-03-01T22:52:19.556Z,95458
2023-03-01T22:55:44.734Z,95462
2023-03-01T22:59:09.898Z,95458
2023-03-01T23:02:35.239Z,95449
2023-03-01T23:06:00.270Z,95443
2023-03-01T23:09:25.417Z,95448
2023-03-01T23:12:50.571Z,95452
2023-03-01T23:16:15.852Z,95443
2023-03-01T23:19:40.909Z,95447
2023-03-01T23:23:06.079Z,95440
2023-03-01T23:26:31.576Z,95438
2023-03-01T23:29:56.405Z,95441
2023-03-01T23:33:21.573Z,95437
2023-03-01T23:36:46.759Z,95434
2023-03-01T23:40:11.969Z,95430
2023-03-01T23:43:37.103Z,95430
2023-03-01T23:47:03.305Z,95428
2023-03-01T23:50:28.471Z,95432
2023-03-01T23:53:53.630Z,95426
2023-03-01T23:57:18.795Z,95423
